Shinei Maru — JM6456 — position and weather

sailwx.info

Track history (hours):
 
Tides and Currents Weather Stations Pressure Air Temp Water Temp Dewpoint Dewpoint Depression Visibility Wind Speed Wind Dir Waves Ship Positions

Shinei Maru

Last reported at 2017-Nov-18 03:55 UTC. Time now 2017-Nov-20 05:55 UTC.
Position N 34°39' E 135°26'.

Length 41 m.

Type: Tanker. MMSI: 431008799.

Date/timePositionNaut miles runAvg speedWind from/ knotsBaromVisibWave heightAir tempDewpointWater temp
2017-Nov-18 03:55N 34°39' E 135°26'4 9.5
2017-Nov-18 03:30N 34°40' E 135°22'5 9.4
2017-Nov-18 02:57N 34°41' E 135°15'3 5.5
2017-Nov-18 02:26N 34°41' E 135°12'0 0.2
2017-Nov-18 02:00N 34°41' E 135°12'1 1.5
2017-Nov-18 01:25N 34°40' E 135°12'0 0.0
2017-Nov-18 00:49N 34°40' E 135°12'0 0.0
2017-Nov-18 00:27N 34°40' E 135°12'3 7.4
2017-Nov-18 00:00N 34°37' E 135°15'1 1.1
2017-Nov-17 23:29N 34°37' E 135°15'0 0.0
2017-Nov-17 22:59N 34°37' E 135°15'2 3.6
2017-Nov-17 22:30N 34°37' E 135°17'5 9.7
2017-Nov-17 22:00N 34°38' E 135°22'3 0.2
2017-Nov-17 00:55N 34°36' E 135°25'4 9.4
2017-Nov-17 00:30N 34°36' E 135°20'5 9.5
2017-Nov-17 00:00N 34°37' E 135°14'1 1.1
2017-Nov-16 23:29N 34°37' E 135°14'0 0.0
2017-Nov-16 22:59N 34°37' E 135°14'1 1.6
2017-Nov-16 22:30N 34°37' E 135°15'5 9.7
2017-Nov-16 21:59N 34°38' E 135°20'3 0.1
2017-Nov-15 23:33N 34°36' E 135°20'210.0
2017-Nov-15 23:23N 34°37' E 135°18'3 7.7
2017-Nov-15 23:00N 34°39' E 135°15'0 0.2
2017-Nov-15 22:22N 34°39' E 135°15'0 0.0
2017-Nov-15 21:58N 34°39' E 135°15'3 6.2
2017-Nov-15 21:29N 34°39' E 135°19'5 9.2
2017-Nov-15 20:59N 34°39' E 135°25'4 0.2
2017-Nov-14 21:39N 34°35' E 135°23'1 8.8
2017-Nov-14 21:29N 34°36' E 135°24'1 0.1
2017-Nov-14 03:55N 34°37' E 135°25'3 0.8
2017-Nov-14 00:46N 34°35' E 135°23'2 8.8
2017-Nov-14 00:29N 34°38' E 135°24'1 0.4
2017-Nov-13 22:52N 34°38' E 135°24'3 0.1
2017-Nov-13 00:30N 34°35' E 135°23'4 9.2
2017-Nov-13 00:00N 34°38' E 135°19'0 0.0
2017-Nov-12 23:24N 34°38' E 135°19'0 0.0
2017-Nov-12 22:52N 34°38' E 135°19'3 7.3
2017-Nov-12 22:30N 34°39' E 135°16'3 5.4
2017-Nov-12 21:53N 34°41' E 135°12'0 0.0
2017-Nov-12 21:29N 34°41' E 135°12'0 0.1
2017-Nov-12 21:00N 34°41' E 135°13'1 1.0
2017-Nov-12 20:25N 34°41' E 135°12'1 3.3
2017-Nov-12 20:00N 34°40' E 135°12'2 4.4
2017-Nov-12 19:28N 34°39' E 135°15'5 9.9
2017-Nov-12 19:00N 34°39' E 135°20'5 0.1
2017-Nov-11 06:13N 34°39' E 135°27'2 8.1
2017-Nov-11 06:00N 34°37' E 135°25'6 2.0
2017-Nov-11 02:59N 34°33' E 135°21'6 2.2
2017-Nov-11 00:08N 34°37' E 135°26'2 0.1
2017-Nov-10 03:54N 34°36' E 135°24'410.3
2017-Nov-10 03:29N 34°39' E 135°20'5 9.7
2017-Nov-10 02:59N 34°41' E 135°15'2 4.0
2017-Nov-10 02:27N 34°41' E 135°12'0 0.2
2017-Nov-10 02:00N 34°41' E 135°12'1 2.0
2017-Nov-10 01:29N 34°40' E 135°12'0 0.0
2017-Nov-10 00:59N 34°40' E 135°12'0 0.0
2017-Nov-10 00:29N 34°40' E 135°12'0 0.0
2017-Nov-09 23:59N 34°40' E 135°12'0 0.0
2017-Nov-09 23:29N 34°40' E 135°12'0 0.0
2017-Nov-09 22:53N 34°40' E 135°12'0 0.0
2017-Nov-09 22:29N 34°40' E 135°12'4 8.3
2017-Nov-09 22:00N 34°37' E 135°16'1 1.7
2017-Nov-09 21:27N 34°37' E 135°17'0 0.0
2017-Nov-09 20:45N 34°37' E 135°17'0 0.0
2017-Nov-09 20:27N 34°37' E 135°17'1 1.3
2017-Nov-09 20:00N 34°37' E 135°17'5 9.4
2017-Nov-09 19:30N 34°38' E 135°23'3 0.1
2017-Nov-09 01:58N 34°36' E 135°21'510.6
2017-Nov-09 01:30N 34°41' E 135°18'1 2.1
2017-Nov-09 00:49N 34°42' E 135°17'0 0.0
2017-Nov-09 00:25N 34°42' E 135°17'0 0.0
2017-Nov-08 23:55N 34°42' E 135°17'0 0.0
2017-Nov-08 23:25N 34°42' E 135°17'2 4.4
2017-Nov-08 22:59N 34°41' E 135°19'5 9.6
2017-Nov-08 22:30N 34°39' E 135°24'  
Track history (hours):
 
Tides and Currents Weather Stations Pressure Air Temp Water Temp Dewpoint Dewpoint Depression Visibility Wind Speed Wind Dir Waves Ship Positions

Shinei Maru

Last reported at 2017-Nov-18 03:55 UTC. Time now 2017-Nov-20 05:55 UTC.
Position N 34°39' E 135°26'.

Length 41 m.

Type: Tanker. MMSI: 431008799.

Date/timePositionNaut miles runAvg speedWind from/ knotsBaromVisibWave heightAir tempDewpointWater temp
2017-Nov-18 03:55N 34°39' E 135°26'4 9.5
2017-Nov-18 03:30N 34°40' E 135°22'5 9.4
2017-Nov-18 02:57N 34°41' E 135°15'3 5.5
2017-Nov-18 02:26N 34°41' E 135°12'0 0.2
2017-Nov-18 02:00N 34°41' E 135°12'1 1.5
2017-Nov-18 01:25N 34°40' E 135°12'0 0.0
2017-Nov-18 00:49N 34°40' E 135°12'0 0.0
2017-Nov-18 00:27N 34°40' E 135°12'3 7.4
2017-Nov-18 00:00N 34°37' E 135°15'1 1.1
2017-Nov-17 23:29N 34°37' E 135°15'0 0.0
2017-Nov-17 22:59N 34°37' E 135°15'2 3.6
2017-Nov-17 22:30N 34°37' E 135°17'5 9.7
2017-Nov-17 22:00N 34°38' E 135°22'3 0.2
2017-Nov-17 00:55N 34°36' E 135°25'4 9.4
2017-Nov-17 00:30N 34°36' E 135°20'5 9.5
2017-Nov-17 00:00N 34°37' E 135°14'1 1.1
2017-Nov-16 23:29N 34°37' E 135°14'0 0.0
2017-Nov-16 22:59N 34°37' E 135°14'1 1.6
2017-Nov-16 22:30N 34°37' E 135°15'5 9.7
2017-Nov-16 21:59N 34°38' E 135°20'3 0.1
2017-Nov-15 23:33N 34°36' E 135°20'210.0
2017-Nov-15 23:23N 34°37' E 135°18'3 7.7
2017-Nov-15 23:00N 34°39' E 135°15'0 0.2
2017-Nov-15 22:22N 34°39' E 135°15'0 0.0
2017-Nov-15 21:58N 34°39' E 135°15'3 6.2
2017-Nov-15 21:29N 34°39' E 135°19'5 9.2
2017-Nov-15 20:59N 34°39' E 135°25'4 0.2
2017-Nov-14 21:39N 34°35' E 135°23'1 8.8
2017-Nov-14 21:29N 34°36' E 135°24'1 0.1
2017-Nov-14 03:55N 34°37' E 135°25'3 0.8
2017-Nov-14 00:46N 34°35' E 135°23'2 8.8
2017-Nov-14 00:29N 34°38' E 135°24'1 0.4
2017-Nov-13 22:52N 34°38' E 135°24'3 0.1
2017-Nov-13 00:30N 34°35' E 135°23'4 9.2
2017-Nov-13 00:00N 34°38' E 135°19'0 0.0
2017-Nov-12 23:24N 34°38' E 135°19'0 0.0
2017-Nov-12 22:52N 34°38' E 135°19'3 7.3
2017-Nov-12 22:30N 34°39' E 135°16'3 5.4
2017-Nov-12 21:53N 34°41' E 135°12'0 0.0
2017-Nov-12 21:29N 34°41' E 135°12'0 0.1
2017-Nov-12 21:00N 34°41' E 135°13'1 1.0
2017-Nov-12 20:25N 34°41' E 135°12'1 3.3
2017-Nov-12 20:00N 34°40' E 135°12'2 4.4
2017-Nov-12 19:28N 34°39' E 135°15'5 9.9
2017-Nov-12 19:00N 34°39' E 135°20'5 0.1
2017-Nov-11 06:13N 34°39' E 135°27'2 8.1
2017-Nov-11 06:00N 34°37' E 135°25'6 2.0
2017-Nov-11 02:59N 34°33' E 135°21'6 2.2
2017-Nov-11 00:08N 34°37' E 135°26'2 0.1
2017-Nov-10 03:54N 34°36' E 135°24'410.3
2017-Nov-10 03:29N 34°39' E 135°20'5 9.7
2017-Nov-10 02:59N 34°41' E 135°15'2 4.0
2017-Nov-10 02:27N 34°41' E 135°12'0 0.2
2017-Nov-10 02:00N 34°41' E 135°12'1 2.0
2017-Nov-10 01:29N 34°40' E 135°12'0 0.0
2017-Nov-10 00:59N 34°40' E 135°12'0 0.0
2017-Nov-10 00:29N 34°40' E 135°12'0 0.0
2017-Nov-09 23:59N 34°40' E 135°12'0 0.0
2017-Nov-09 23:29N 34°40' E 135°12'0 0.0
2017-Nov-09 22:53N 34°40' E 135°12'0 0.0
2017-Nov-09 22:29N 34°40' E 135°12'4 8.3
2017-Nov-09 22:00N 34°37' E 135°16'1 1.7
2017-Nov-09 21:27N 34°37' E 135°17'0 0.0
2017-Nov-09 20:45N 34°37' E 135°17'0 0.0
2017-Nov-09 20:27N 34°37' E 135°17'1 1.3
2017-Nov-09 20:00N 34°37' E 135°17'5 9.4
2017-Nov-09 19:30N 34°38' E 135°23'3 0.1
2017-Nov-09 01:58N 34°36' E 135°21'510.6
2017-Nov-09 01:30N 34°41' E 135°18'1 2.1
2017-Nov-09 00:49N 34°42' E 135°17'0 0.0
2017-Nov-09 00:25N 34°42' E 135°17'0 0.0
2017-Nov-08 23:55N 34°42' E 135°17'0 0.0
2017-Nov-08 23:25N 34°42' E 135°17'2 4.4
2017-Nov-08 22:59N 34°41' E 135°19'5 9.6
2017-Nov-08 22:30N 34°39' E 135°24'  

Dump ship's entire track history